x

Ilm3 - 27 Miles Se Of Wrightsville Beach, Nc (41037) Weather Station

6:00 - Sat 26th Jul 2014 All times are EDT. -4 hours from GMT.

  • Wind
    7mph, 9mph gusts
  • Sea Temp 81°f
  • Air Temp 77°f
  • Sea Pressure 1015.2mb
  • Ilm3 - 27 Miles Se Of Wrightsville Beach, Nc
  • Ilm3 - 27 Miles Se Of Wrightsville Beach, Nc

More Historic Weather Station data

Upgrade to MSW Pro to gain access to the past 30 days of data for over 8000 Wavebouys and Weather Stations around the globe.

Join Pro

Comparision Forecast

View Surf forecast
   
sam. 07/26 6:00 7 9 mph 1015.2mb 81f 77f
5:00 7 9 mph 1015.4mb 81f 77f
4:00 11
mph
1015.3mb 81f 77f
3:00 11 13 mph 1015.3mb 81f 77f
2:00 7 9 mph 1015.9mb 81f 76f
1:00 4 7 mph 1016.1mb 81f 77f
12:00 4 7 mph 1016.8mb 81f 77f
ven. 07/25 11:00 9 11 mph 1017.2mb 81f 77f
10:00 7 9 mph 1017mb 81f 77f
9:00 4 7 mph 1016.1mb 81f 77f
8:00 7 9 mph 1015.7mb 81f 77f
7:00 11 13 mph 1014.9mb 81f 76f
6:00 4 7 mph 1015.9mb 81f 76f
5:00 11
mph
1015.7mb 81f 76f
4:00 13
mph
1015.8mb 81f 75f
3:00 13
mph
1016.4mb 81f 76f
1:00 11 13 mph 1017.3mb 81f 74f
12:00 13 16 mph 1017.5mb 81f 74f
11:00 13 18 mph 1017.4mb 81f 74f
10:00 16 20 mph 1016.7mb 81f 73f
9:00 13 18 mph 1016.1mb 81f 74f
8:00 11 13 mph 1015.8mb 81f 75f
7:00 11 16 mph 1014.7mb 81f 75f
6:00 13 18 mph 1014.6mb 81f 75f
5:00 13 16 mph 1014.1mb 81f 74f
4:00 4 9 mph 1013.8mb 81f 74f
3:00 7 11 mph 1013.9mb 81f 74f
2:00 16 18 mph 1014mb 81f 75f
1:00 13 16 mph 1013.4mb 81f 74f
12:00 25 29 mph 1013.7mb 81f 73f
jeu. 07/24 11:00 13 16 mph 1013.1mb 81f 78f
10:00 13 18 mph 1012.2mb 81f 78f
9:00 4 7 mph 1012.5mb 81f 77f
8:00 7 11 mph 1012.4mb 81f 74f
7:00 20 25 mph 1011.6mb 81f 79f
6:00 20 25 mph 1010.9mb 81f 79f
5:00 20 25 mph 1010.9mb 81f 79f
4:00 22 25 mph 1011.2mb 81f 79f
3:00 20 25 mph 1012.2mb 81f 79f
2:00 18 22 mph 1012.2mb 81f 78f
1:00 18 20 mph 1012.6mb 81f 78f
12:00 16 18 mph 1013.4mb 81f 78f
11:00 16 18 mph 1013.9mb 81f 78f
10:00 16 18 mph 1013.8mb 81f 78f
9:00 16 20 mph 1013.8mb 81f 78f
8:00 16 18 mph 1013.8mb 81f 78f
7:00 16 18 mph 1013.5mb 81f 78f
6:00 16 20 mph 1013.4mb 81f 77f
5:00 18 22 mph 1013.3mb 81f 78f
3:00 18 20 mph 1013.7mb 81f 77f
2:00 18 22 mph 1014.4mb 81f 77f
12:00 20 22 mph 1013.9mb 81f 77f
mer. 07/23 11:00 18 20 mph 1014.5mb 81f 77f
10:00 20 22 mph 1014.2mb 81f 77f
9:00 20 22 mph 1014.5mb 81f 77f
8:00 20 25 mph 1014.4mb 81f 77f
7:00 20 22 mph 1014.4mb 81f 77f
6:00 18 20 mph 1015mb 81f 78f
5:00 16 18 mph 1015.1mb 82f 78f
4:00 13 16 mph 1015.9mb 82f 77f
3:00 9 11 mph 1016.5mb 82f 76f
2:00 16 18 mph 1017.3mb 82f 76f
1:00 4 7 mph 1017.9mb 82f 78f
12:00 7 9 mph 1017.9mb 82f 77f
11:00 4 7 mph 1018.1mb 81f 78f
10:00 7
mph
1018.2mb 81f 77f
9:00 7
mph
1018.1mb 80f 77f
8:00 7 9 mph 1017.8mb 80f 76f
7:00 7 9 mph 1018mb 80f 76f
6:00 7 9 mph 1018mb 80f 75f
5:00 9 11 mph 1017.8mb 80f 76f
4:00 11 13 mph 1017.8mb 80f 76f
3:00 11 16 mph 1018.1mb 80f 76f
2:00 16 18 mph 1018.6mb 80f 76f
1:00 13 16 mph 1018.8mb 80f 76f
12:00 13 16 mph 1019.1mb 80f 76f
mar. 07/22 11:00 16 18 mph 1019.2mb 80f 76f
10:00 13 18 mph 1019.1mb 80f 76f
9:00 18 20 mph 1018.9mb 80f 76f
8:00 18 20 mph 1018.7mb 80f 76f
7:00 16 18 mph 1018.6mb 80f 75f
6:00 22 25 mph 1018.5mb 80f 75f
5:00 18 22 mph 1018.4mb 80f 76f
4:00 18 22 mph 1019.2mb 80f 76f
3:00 13
mph
1019.4mb 80f 76f
2:00 9 11 mph 1019.7mb 80f 75f
1:00 11 13 mph 1019.4mb 80f 75f
12:00 11
mph
1020.4mb 80f 74f